Time;durP1;ratioP1;P1;durP2;ratioP2;P2;SDS_P1;SDS_P2;PMS_P1;PMS_P2;Temp;Humidity;BMP_temperature;BMP_pressure;BME280_temperature;BME280_humidity;BME280_pressure;Samples;Min_cycle;Max_cycle;Signal;HPM_P1;HPM_P2
2023/06/15 00:00:35;;;;;;;17.40;15.70;;;;;;;14.40;77.23;100553.98;111283;1256;21953;-77
2023/06/15 00:03:25;;;;;;;16.80;15.30;;;;;;;14.39;77.22;100555.09;111186;1256;21948;-76
2023/06/15 00:05:55;;;;;;;16.10;14.50;;;;;;;14.39;77.19;100557.03;111192;1256;23757;-77
2023/06/15 00:08:25;;;;;;;17.30;15.40;;;;;;;14.38;77.19;100552.15;111111;1256;22026;-76
2023/06/15 00:10:55;;;;;;;17.30;15.80;;;;;;;14.39;77.25;100555.28;111142;1256;21984;-75
2023/06/15 00:13:24;;;;;;;17.90;16.00;;;;;;;14.40;77.20;100555.38;111133;1254;23773;-77
2023/06/15 00:15:53;;;;;;;18.10;16.30;;;;;;;14.41;77.26;100555.34;111104;1256;21958;-76
2023/06/15 00:18:23;;;;;;;18.00;16.10;;;;;;;14.40;77.21;100555.36;111116;1255;22004;-76
2023/06/15 00:20:55;;;;;;;18.20;16.30;;;;;;;14.40;77.14;100556.27;110911;1256;22971;-77
2023/06/15 00:23:26;;;;;;;17.30;15.70;;;;;;;14.40;77.11;100554.01;110960;1256;22708;-76
2023/06/15 00:25:56;;;;;;;;;;;;;;;14.39;77.11;100557.37;110976;1257;21938;-77
2023/06/15 00:28:26;;;;;;;17.80;16.20;;;;;;;14.32;77.48;100559.33;111147;1257;23713;-75
2023/06/15 00:30:56;;;;;;;18.40;16.70;;;;;;;14.33;77.32;100557.33;110943;1256;24425;-77
2023/06/15 00:33:25;;;;;;;17.70;16.00;;;;;;;14.34;77.23;100555.85;111161;1254;21954;-76
2023/06/15 00:35:54;;;;;;;17.80;16.10;;;;;;;14.35;77.23;100551.77;111078;1256;21965;-76
2023/06/15 00:38:24;;;;;;;19.70;17.90;;;;;;;14.37;77.15;100549.58;110701;1260;23611;-76
2023/06/15 00:40:56;;;;;;;19.40;17.40;;;;;;;14.38;77.17;100548.67;110124;1266;22010;-76
2023/06/15 00:43:26;;;;;;;17.90;16.10;;;;;;;14.38;77.05;100546.56;110123;1266;22044;-78
2023/06/15 00:45:56;;;;;;;18.90;17.00;;;;;;;14.38;77.08;100547.26;110136;1266;21972;-76
2023/06/15 00:48:26;;;;;;;18.80;17.00;;;;;;;14.39;77.00;100546.88;109974;1266;22072;-77
2023/06/15 00:50:56;;;;;;;19.00;17.30;;;;;;;14.39;77.01;100547.55;110334;1266;21989;-77
2023/06/15 00:53:25;;;;;;;19.40;17.50;;;;;;;14.38;77.02;100543.92;110303;1266;21973;-76
2023/06/15 00:55:56;;;;;;;19.00;17.20;;;;;;;14.38;76.95;100541.63;110351;1261;21984;-77
2023/06/15 00:58:26;;;;;;;21.40;19.20;;;;;;;14.39;76.97;100544.95;110672;1257;21968;-76
2023/06/15 01:01:01;;;;;;;20.20;18.30;;;;;;;14.38;76.92;100540.61;111069;1255;21982;-77
2023/06/15 01:03:35;;;;;;;22.90;19.30;;;;;;;14.38;76.90;100536.61;110916;1256;21954;-77
2023/06/15 01:06:13;;;;;;;21.40;19.20;;;;;;;14.36;76.85;100532.64;111052;1256;23789;-79
2023/06/15 01:08:52;;;;;;;19.70;17.70;;;;;;;14.34;76.77;100531.88;111284;1255;21972;-78
2023/06/15 01:11:25;;;;;;;20.70;18.50;;;;;;;14.33;76.70;100529.84;111066;1255;22968;-79
2023/06/15 01:13:59;;;;;;;20.60;18.60;;;;;;;14.32;76.78;100523.27;111419;1256;23085;-80
2023/06/15 01:16:40;;;;;;;20.30;18.40;;;;;;;14.30;76.75;100522.27;111023;1255;22027;-78
2023/06/15 01:19:34;;;;;;;21.00;17.70;;;;;;;14.30;76.86;100526.88;111314;1256;22000;-79
2023/06/15 01:22:29;;;;;;;23.10;18.10;;;;;;;14.27;76.75;100526.28;111386;1256;23059;-77
2023/06/15 01:25:10;;;;;;;19.30;17.30;;;;;;;14.26;76.72;100525.29;111157;1256;22164;-78
2023/06/15 01:27:41;;;;;;;20.30;18.20;;;;;;;14.28;76.84;100527.65;111064;1256;23648;-77
2023/06/15 01:30:12;;;;;;;20.70;17.30;;;;;;;14.30;76.88;100529.45;111126;1256;22401;-76
2023/06/15 01:32:42;;;;;;;19.20;17.50;;;;;;;14.32;76.91;100528.66;111195;1254;22002;-77
2023/06/15 01:35:12;;;;;;;18.80;16.80;;;;;;;14.31;76.91;100524.14;110952;1259;21958;-76
2023/06/15 01:37:42;;;;;;;21.90;19.60;;;;;;;14.31;76.89;100522.93;110823;1257;22130;-77
2023/06/15 01:40:13;;;;;;;24.50;22.30;;;;;;;14.31;76.84;100523.98;110959;1259;21976;-79
2023/06/15 01:42:47;;;;;;;24.70;22.40;;;;;;;14.30;76.86;100524.91;110702;1259;23039;-77
2023/06/15 01:45:18;;;;;;;24.50;22.40;;;;;;;14.29;76.82;100523.54;110889;1259;23043;-78
2023/06/15 01:47:53;;;;;;;24.40;22.20;;;;;;;14.28;76.87;100523.10;110965;1259;22094;-77
2023/06/15 01:50:24;;;;;;;;;;;;;;;14.27;76.94;100523.66;111067;1259;21974;-79
2023/06/15 01:52:55;;;;;;;23.20;20.70;;;;;;;14.19;77.28;100523.02;110910;1255;22729;-76
2023/06/15 01:55:25;;;;;;;25.00;21.10;;;;;;;14.20;77.15;100520.84;110690;1260;21957;-78
2023/06/15 01:57:56;;;;;;;22.10;20.00;;;;;;;14.22;77.19;100522.66;111056;1260;23069;-76
2023/06/15 02:00:25;;;;;;;20.40;18.50;;;;;;;14.24;77.10;100523.10;110869;1260;23583;-77
2023/06/15 02:02:55;;;;;;;25.20;22.90;;;;;;;14.24;77.10;100517.34;110957;1259;22363;-77
2023/06/15 02:05:25;;;;;;;24.30;22.20;;;;;;;14.22;76.98;100516.38;110669;1260;21965;-77
2023/06/15 02:07:55;;;;;;;22.70;20.90;;;;;;;14.20;76.95;100517.86;110865;1259;21960;-77
2023/06/15 02:10:25;;;;;;;20.80;18.80;;;;;;;14.19;76.94;100514.09;110847;1259;23088;-77
2023/06/15 02:12:56;;;;;;;19.20;17.40;;;;;;;14.16;76.71;100514.24;110920;1249;21975;-78
2023/06/15 02:15:27;;;;;;;15.80;14.30;;;;;;;14.14;76.68;100514.52;110814;1260;21995;-76
2023/06/15 02:18:00;;;;;;;15.10;13.60;;;;;;;14.11;76.60;100512.42;110798;1260;21964;-77
2023/06/15 02:20:32;;;;;;;15.00;13.70;;;;;;;14.08;76.51;100516.21;110765;1260;22421;-78
2023/06/15 02:23:02;;;;;;;14.40;13.10;;;;;;;14.06;76.53;100517.86;110710;1260;21985;-77
2023/06/15 02:25:32;;;;;;;14.90;13.60;;;;;;;14.05;76.48;100517.05;110656;1260;24300;-76
2023/06/15 02:28:04;;;;;;;14.10;13.00;;;;;;;14.03;76.30;100516.80;110895;1260;21980;-76
2023/06/15 02:30:34;;;;;;;15.10;13.50;;;;;;;14.02;76.17;100518.95;110716;1260;23639;-75
2023/06/15 02:33:07;;;;;;;14.70;13.30;;;;;;;14.00;76.04;100518.34;110726;1256;23696;-75
2023/06/15 02:35:38;;;;;;;16.50;13.00;;;;;;;13.97;76.09;100516.75;111010;1256;22407;-77
2023/06/15 02:38:08;;;;;;;14.70;13.20;;;;;;;13.97;76.10;100518.52;111186;1256;21981;-74
2023/06/15 02:40:39;;;;;;;15.10;13.60;;;;;;;13.97;76.01;100518.67;111147;1256;21958;-75
2023/06/15 02:43:09;;;;;;;14.60;13.20;;;;;;;13.97;75.91;100517.60;111011;1255;21959;-75
2023/06/15 02:45:40;;;;;;;15.20;13.70;;;;;;;13.98;75.93;100516.02;111201;1255;21980;-77
2023/06/15 02:48:11;;;;;;;14.60;13.20;;;;;;;13.98;75.80;100517.06;111236;1255;22016;-77
2023/06/15 02:50:44;;;;;;;15.10;13.50;;;;;;;13.99;75.84;100518.23;111310;1255;21964;-77
2023/06/15 02:53:23;;;;;;;16.50;14.90;;;;;;;14.01;75.85;100513.42;111611;1255;23582;-77
2023/06/15 02:55:57;;;;;;;17.10;15.40;;;;;;;14.03;75.84;100514.20;111285;1255;22075;-77
2023/06/15 02:58:32;;;;;;;18.00;16.10;;;;;;;14.04;75.64;100509.92;110539;1263;21963;-77
2023/06/15 03:01:23;;;;;;;16.90;15.20;;;;;;;14.01;75.73;100505.52;110495;1263;22003;-77
2023/06/15 03:03:58;;;;;;;17.40;16.00;;;;;;;14.09;75.77;100512.30;110610;1263;21971;-78
2023/06/15 03:06:29;;;;;;;18.20;16.00;;;;;;;14.16;75.77;100514.05;110619;1263;22442;-77
2023/06/15 03:08:59;;;;;;;17.30;15.60;;;;;;;14.22;75.76;100515.33;110585;1263;23589;-77
2023/06/15 03:11:31;;;;;;;16.10;14.50;;;;;;;14.28;75.65;100518.21;110638;1263;21975;-78
2023/06/15 03:14:02;;;;;;;17.50;15.70;;;;;;;14.33;75.65;100520.72;110388;1263;23622;-80
2023/06/15 03:16:41;;;;;;;17.50;15.70;;;;;;;14.39;75.62;100516.76;111005;1255;23592;-79
2023/06/15 03:19:11;;;;;;;15.70;14.10;;;;;;;14.44;75.44;100518.61;111373;1255;21979;-76
2023/06/15 03:21:43;;;;;;;16.40;14.80;;;;;;;14.50;75.48;100516.74;110963;1255;21991;-77
2023/06/15 03:24:16;;;;;;;17.00;15.30;;;;;;;14.54;75.35;100518.43;111200;1255;21950;-78
2023/06/15 03:26:48;;;;;;;16.90;15.00;;;;;;;14.59;75.34;100518.55;111181;1255;21961;-78
2023/06/15 03:29:19;;;;;;;15.20;13.80;;;;;;;14.64;75.28;100518.84;111305;1255;21947;-79
2023/06/15 03:31:50;;;;;;;16.50;15.00;;;;;;;14.69;75.22;100517.71;111032;1255;21966;-77
2023/06/15 03:34:19;;;;;;;17.20;14.30;;;;;;;14.73;75.00;100512.05;111040;1255;23135;-76
2023/06/15 03:36:51;;;;;;;15.60;14.00;;;;;;;14.77;74.87;100512.56;110944;1260;21981;-77
2023/06/15 03:39:22;;;;;;;;;;;;;;;14.79;74.71;100509.10;110679;1260;21954;-77
2023/06/15 03:41:52;;;;;;;17.50;13.50;;;;;;;14.74;74.90;100507.80;110685;1254;23020;-77
2023/06/15 03:44:22;;;;;;;14.50;13.00;;;;;;;14.78;74.82;100509.69;110790;1260;23119;-77
2023/06/15 03:46:53;;;;;;;15.00;12.70;;;;;;;14.83;74.60;100510.66;110624;1260;21960;-78
2023/06/15 03:49:23;;;;;;;14.60;13.00;;;;;;;14.88;74.47;100511.77;110953;1260;21961;-78
2023/06/15 03:51:54;;;;;;;15.70;14.30;;;;;;;14.95;74.34;100510.58;110989;1260;21983;-77
2023/06/15 03:54:25;;;;;;;15.40;13.80;;;;;;;14.99;74.09;100513.31;110804;1260;21986;-77
2023/06/15 03:56:55;;;;;;;14.80;13.50;;;;;;;15.02;73.89;100514.55;111015;1260;22002;-77
2023/06/15 03:59:26;;;;;;;13.60;12.40;;;;;;;15.05;73.74;100513.67;110219;1268;22090;-77
2023/06/15 04:01:57;;;;;;;15.20;13.20;;;;;;;15.10;73.62;100516.03;110382;1262;23711;-78
2023/06/15 04:04:32;;;;;;;13.60;12.20;;;;;;;15.14;73.62;100517.40;106541;1263;5204490;-76
2023/06/15 04:07:08;;;;;;;14.50;13.10;;;;;;;15.18;73.40;100516.85;110646;1262;22025;-75
2023/06/15 04:09:39;;;;;;;14.10;12.80;;;;;;;15.22;73.26;100520.14;110664;1262;22941;-77
2023/06/15 04:12:10;;;;;;;14.10;12.40;;;;;;;15.24;72.96;100520.20;110659;1262;24303;-76
2023/06/15 04:14:40;;;;;;;14.10;12.80;;;;;;;15.27;72.84;100521.98;110320;1266;23593;-77
2023/06/15 04:17:13;;;;;;;14.30;13.00;;;;;;;15.29;72.71;100520.13;110433;1261;22660;-78
2023/06/15 04:19:43;;;;;;;15.70;14.20;;;;;;;15.32;72.66;100523.48;110767;1261;21964;-77
2023/06/15 04:22:14;;;;;;;16.40;14.80;;;;;;;15.31;72.63;100528.04;110671;1260;22805;-78
2023/06/15 04:24:45;;;;;;;16.30;14.60;;;;;;;15.32;72.41;100527.50;110704;1261;22591;-77
2023/06/15 04:27:18;;;;;;;17.50;15.70;;;;;;;15.31;72.33;100531.41;110686;1261;22179;-76
2023/06/15 04:29:52;;;;;;;20.50;18.50;;;;;;;15.33;72.47;100530.75;110761;1261;21941;-76
2023/06/15 04:32:25;;;;;;;19.50;17.50;;;;;;;15.36;72.39;100530.76;110831;1257;21969;-77
2023/06/15 04:35:01;;;;;;;20.30;18.40;;;;;;;15.44;72.58;100526.66;110639;1262;21978;-78
2023/06/15 04:37:32;;;;;;;20.20;18.50;;;;;;;15.59;72.91;100524.77;110713;1262;21962;-77
2023/06/15 04:40:05;;;;;;;19.50;17.60;;;;;;;15.79;73.04;100524.52;110619;1262;22198;-76
2023/06/15 04:42:40;;;;;;;18.40;16.60;;;;;;;16.10;73.29;100524.68;110731;1261;21984;-77
2023/06/15 04:45:12;;;;;;;16.60;15.20;;;;;;;16.40;72.73;100521.74;110720;1262;23015;-77
2023/06/15 04:47:43;;;;;;;15.00;13.60;;;;;;;16.62;71.97;100525.14;110546;1262;22457;-80
2023/06/15 04:50:15;;;;;;;16.40;14.80;;;;;;;16.75;70.92;100524.39;110698;1263;21979;-77
2023/06/15 04:53:00;;;;;;;15.90;14.30;;;;;;;16.84;70.44;100525.25;110705;1256;23622;-77
2023/06/15 04:55:30;;;;;;;14.60;13.40;;;;;;;16.96;70.14;100528.55;110910;1256;22035;-77
2023/06/15 04:58:02;;;;;;;15.90;14.20;;;;;;;17.06;69.68;100528.32;110840;1256;21936;-77
2023/06/15 05:00:33;;;;;;;15.20;13.40;;;;;;;17.18;69.50;100527.21;110697;1260;22038;-77
2023/06/15 05:03:08;;;;;;;17.60;15.90;;;;;;;17.56;70.69;100528.86;110496;1260;22919;-78
2023/06/15 05:05:47;;;;;;;15.90;14.50;;;;;;;18.08;70.19;100527.25;110697;1260;23113;-77
2023/06/15 05:08:26;;;;;;;17.70;15.50;;;;;;;18.54;68.56;100529.48;110129;1264;23026;-77
2023/06/15 05:11:09;;;;;;;14.00;12.50;;;;;;;18.96;67.84;100529.22;110367;1264;21968;-77
2023/06/15 05:13:39;;;;;;;15.60;14.00;;;;;;;19.46;66.77;100531.55;110431;1264;22156;-77
2023/06/15 05:16:13;;;;;;;16.00;13.80;;;;;;;19.78;64.19;100527.64;109826;1270;22006;-78
2023/06/15 05:18:58;;;;;;;14.50;12.50;;;;;;;20.05;63.44;100528.86;109783;1267;21980;-75
2023/06/15 05:21:31;;;;;;;13.60;12.30;;;;;;;20.23;61.23;100532.92;110108;1267;21976;-76
2023/06/15 05:24:05;;;;;;;13.60;11.60;;;;;;;20.22;60.59;100534.23;110093;1267;21977;-77
2023/06/15 05:26:41;;;;;;;13.90;12.70;;;;;;;20.42;61.16;100532.02;110447;1249;22208;-76
2023/06/15 05:29:15;;;;;;;12.90;11.60;;;;;;;20.50;59.43;100533.02;110442;1262;23037;-76
2023/06/15 05:31:45;;;;;;;14.00;11.10;;;;;;;20.49;58.85;100532.78;110516;1262;21967;-74
2023/06/15 05:34:17;;;;;;;15.70;9.70;;;;;;;20.37;57.74;100534.23;110550;1256;22045;-74
2023/06/15 05:36:50;;;;;;;;;;;;;;;20.10;57.16;100534.64;111262;1248;21953;-79
2023/06/15 05:39:37;;;;;;;10.90;9.80;;;;;;;19.79;57.61;100538.15;110922;1255;21991;-78
2023/06/15 05:42:07;;;;;;;12.70;10.50;;;;;;;19.62;57.74;100544.64;111084;1256;23947;-79
2023/06/15 05:44:39;;;;;;;17.10;11.60;;;;;;;19.43;57.88;100548.33;111026;1256;22067;-80
2023/06/15 05:47:12;;;;;;;12.40;10.80;;;;;;;19.24;58.35;100545.77;111156;1256;23013;-79
2023/06/15 05:49:44;;;;;;;14.20;11.40;;;;;;;19.12;59.09;100547.48;111003;1251;23016;-78
2023/06/15 05:52:14;;;;;;;12.20;11.10;;;;;;;19.04;59.42;100547.02;110808;1256;21946;-78
2023/06/15 05:54:46;;;;;;;13.20;11.00;;;;;;;18.96;59.53;100551.64;110981;1256;22985;-77
2023/06/15 05:57:17;;;;;;;12.10;10.80;;;;;;;18.87;59.55;100552.44;110924;1243;23113;-78
2023/06/15 05:59:49;;;;;;;12.80;11.60;;;;;;;18.77;59.43;100553.81;111037;1256;21989;-77
2023/06/15 06:02:23;;;;;;;16.60;12.10;;;;;;;18.62;59.69;100548.65;111035;1256;21975;-77
2023/06/15 06:04:56;;;;;;;12.40;11.20;;;;;;;18.49;59.91;100552.20;110996;1256;22194;-79
2023/06/15 06:07:32;;;;;;;11.60;10.40;;;;;;;18.42;60.37;100557.78;110492;1260;23021;-76
2023/06/15 06:10:03;;;;;;;11.10;9.30;;;;;;;18.35;60.40;100558.78;109462;1270;21998;-78
2023/06/15 06:12:42;;;;;;;8.70;7.90;;;;;;;18.27;60.58;100558.26;109838;1270;21973;-77
2023/06/15 06:15:15;;;;;;;9.70;8.80;;;;;;;18.21;60.45;100557.97;109781;1270;21971;-76
2023/06/15 06:17:54;;;;;;;10.80;9.40;;;;;;;18.15;60.32;100559.39;109817;1261;21953;-77
2023/06/15 06:20:28;;;;;;;9.90;8.90;;;;;;;18.10;60.20;100559.38;109405;1270;22271;-78
2023/06/15 06:23:03;;;;;;;11.40;8.90;;;;;;;18.09;60.58;100560.27;109904;1258;23074;-78
2023/06/15 06:25:36;;;;;;;9.70;8.40;;;;;;;18.09;60.53;100560.64;109858;1264;21967;-77
2023/06/15 06:28:15;;;;;;;12.40;10.60;;;;;;;18.08;60.36;100559.98;109780;1265;23028;-80
2023/06/15 06:30:45;;;;;;;11.80;9.20;;;;;;;18.08;60.40;100560.89;110403;1265;23122;-78
2023/06/15 06:33:15;;;;;;;11.50;10.20;;;;;;;18.10;60.41;100558.48;110196;1262;22029;-79
2023/06/15 06:35:45;;;;;;;13.60;12.20;;;;;;;18.12;60.61;100562.77;109991;1265;23749;-78
2023/06/15 06:38:16;;;;;;;13.40;12.10;;;;;;;18.15;60.76;100565.20;110213;1263;21986;-78
2023/06/15 06:40:49;;;;;;;13.00;11.80;;;;;;;18.17;60.81;100565.09;110620;1263;22068;-76
2023/06/15 06:43:20;;;;;;;14.40;12.30;;;;;;;18.20;61.00;100566.97;110602;1263;22184;-77
2023/06/15 06:45:53;;;;;;;13.20;11.40;;;;;;;18.25;61.06;100568.76;110463;1265;22114;-78
2023/06/15 06:48:23;;;;;;;15.10;13.00;;;;;;;18.31;60.98;100568.86;110368;1265;22041;-77
2023/06/15 06:50:53;;;;;;;13.00;11.90;;;;;;;18.38;60.92;100568.97;110413;1265;22109;-80
2023/06/15 06:53:23;;;;;;;14.30;12.90;;;;;;;18.44;60.82;100563.63;110565;1261;24287;-80
2023/06/15 06:55:53;;;;;;;14.70;13.30;;;;;;;18.47;60.63;100559.88;110674;1261;23707;-77
2023/06/15 06:58:23;;;;;;;14.90;13.30;;;;;;;18.54;60.83;100562.07;110729;1261;23590;-77
2023/06/15 07:00:54;;;;;;;13.80;12.50;;;;;;;18.63;60.86;100562.48;110772;1261;23610;-78
2023/06/15 07:03:24;;;;;;;14.20;12.80;;;;;;;18.76;60.88;100558.83;110195;1261;22024;-78
2023/06/15 07:05:55;;;;;;;14.70;12.00;;;;;;;18.91;60.74;100558.65;110706;1261;24471;-78
2023/06/15 07:08:25;;;;;;;14.20;11.70;;;;;;;19.06;60.53;100558.88;110782;1261;22072;-77
2023/06/15 07:10:55;;;;;;;12.90;11.40;;;;;;;19.25;60.37;100559.64;110656;1261;22108;-76
2023/06/15 07:13:27;;;;;;;10.70;9.30;;;;;;;19.39;59.79;100563.09;110342;1264;21968;-76
2023/06/15 07:15:57;;;;;;;11.40;10.10;;;;;;;19.50;59.05;100565.98;110217;1264;22442;-78
2023/06/15 07:18:29;;;;;;;10.10;8.50;;;;;;;19.58;58.47;100565.44;110173;1263;21964;-76
2023/06/15 07:21:02;;;;;;;10.20;8.10;;;;;;;19.60;57.91;100562.11;110236;1261;23026;-79
2023/06/15 07:23:32;;;;;;;10.60;7.90;;;;;;;19.65;57.71;100561.90;110649;1258;22021;-77
2023/06/15 07:26:23;;;;;;;11.80;8.00;;;;;;;19.61;56.91;100566.49;110798;1260;22037;-79
2023/06/15 07:28:55;;;;;;;8.40;7.60;;;;;;;19.63;57.05;100565.08;110696;1260;22428;-78
2023/06/15 07:31:25;;;;;;;8.80;7.50;;;;;;;19.65;56.94;100562.98;110933;1256;21965;-78
2023/06/15 07:34:05;;;;;;;10.90;8.00;;;;;;;19.68;56.96;100553.95;110852;1261;22120;-79
2023/06/15 07:36:37;;;;;;;9.30;8.30;;;;;;;19.78;56.83;100558.01;110686;1261;22079;-79
2023/06/15 07:39:16;;;;;;;9.40;8.20;;;;;;;19.80;56.31;100560.71;110105;1267;22988;-77
2023/06/15 07:42:01;;;;;;;12.90;8.10;;;;;;;19.77;56.03;100561.30;110046;1266;23049;-79
2023/06/15 07:44:46;;;;;;;10.90;8.20;;;;;;;19.73;55.91;100563.50;110098;1267;22066;-78
2023/06/15 07:47:22;;;;;;;10.60;7.80;;;;;;;19.68;55.81;100562.94;110087;1267;23005;-77
2023/06/15 07:49:55;;;;;;;9.00;8.00;;;;;;;19.67;55.83;100561.95;109309;1270;22056;-78
2023/06/15 07:52:32;;;;;;;10.70;7.90;;;;;;;19.63;55.43;100562.09;109775;1265;21977;-79
2023/06/15 07:55:15;;;;;;;12.20;8.70;;;;;;;19.56;55.50;100562.41;109875;1265;21985;-79
2023/06/15 07:58:00;;;;;;;8.30;7.30;;;;;;;19.54;55.62;100563.61;110362;1262;21963;-80
2023/06/15 08:00:35;;;;;;;8.90;8.10;;;;;;;19.46;55.33;100564.70;110188;1265;21987;-82
2023/06/15 08:03:33;;;;;;;11.70;8.00;;;;;;;19.34;55.26;100562.73;110384;1265;24397;-78
2023/06/15 08:06:10;;;;;;;9.00;8.00;;;;;;;19.25;55.32;100563.89;110326;1265;21963;-81
2023/06/15 08:08:55;;;;;;;13.40;7.70;;;;;;;19.11;55.19;100563.29;110567;1260;21968;-79
2023/06/15 08:11:47;;;;;;;9.00;8.10;;;;;;;18.95;55.42;100565.95;110648;1260;21985;-79
2023/06/15 08:14:35;;;;;;;10.70;9.70;;;;;;;18.82;55.59;100560.36;110696;1260;22010;-79
2023/06/15 08:17:29;;;;;;;9.00;8.20;;;;;;;18.70;55.95;100561.48;110705;1260;21959;-80
2023/06/15 08:20:22;;;;;;;;;;;;;;;18.60;56.33;100557.92;111181;1256;22240;-82
2023/06/15 08:22:55;;;;;;;9.50;8.60;;;;;;;18.44;56.61;100559.23;111156;1256;23591;-78
2023/06/15 08:25:44;;;;;;;11.40;8.50;;;;;;;18.39;57.05;100563.92;111183;1256;22254;-79
2023/06/15 08:28:25;;;;;;;10.70;8.20;;;;;;;18.39;57.03;100561.52;111123;1256;21918;-79
2023/06/15 08:31:31;;;;;;;9.10;7.80;;;;;;;18.32;57.10;100565.09;111052;1256;22109;-79
2023/06/15 08:34:17;;;;;;;10.90;8.10;;;;;;;18.29;57.01;100564.77;111064;1256;23485;-78
2023/06/15 08:37:03;;;;;;;10.60;9.10;;;;;;;18.30;57.10;100562.48;111136;1256;23688;-80
2023/06/15 08:40:06;;;;;;;13.80;8.60;;;;;;;18.33;57.24;100558.34;110897;1256;23686;-77
2023/06/15 08:42:52;;;;;;;12.40;9.00;;;;;;;18.41;57.56;100561.71;111049;1256;22561;-82
2023/06/15 08:45:37;;;;;;;10.70;8.70;;;;;;;18.53;57.59;100561.27;110955;1256;22614;-80
2023/06/15 08:48:21;;;;;;;10.40;8.70;;;;;;;18.62;57.39;100560.78;111203;1256;22884;-80
2023/06/15 08:51:06;;;;;;;9.70;8.70;;;;;;;18.72;57.13;100559.61;110520;1263;24109;-77
2023/06/15 08:53:52;;;;;;;12.60;7.50;;;;;;;18.79;56.85;100563.73;110469;1263;23594;-79
2023/06/15 08:56:41;;;;;;;11.40;7.90;;;;;;;18.87;56.55;100562.50;109484;1269;22066;-78
2023/06/15 08:59:31;;;;;;;9.50;8.20;;;;;;;18.96;56.50;100562.21;109771;1268;22014;-79
2023/06/15 09:02:22;;;;;;;9.20;7.90;;;;;;;19.08;56.11;100558.73;109337;1273;21989;-79
2023/06/15 09:05:14;;;;;;;10.30;9.20;;;;;;;19.21;55.96;100559.44;109299;1273;21983;-78
2023/06/15 09:07:59;;;;;;;10.00;8.50;;;;;;;19.24;55.63;100557.25;109513;1273;21978;-79
2023/06/15 09:10:41;;;;;;;10.20;9.10;;;;;;;19.27;55.30;100559.00;109549;1273;22637;-78
2023/06/15 09:13:18;;;;;;;10.00;8.90;;;;;;;19.36;55.54;100560.80;109039;1276;21990;-80
2023/06/15 09:16:05;;;;;;;9.10;7.60;;;;;;;19.53;55.81;100562.99;109747;1271;23021;-78
2023/06/15 09:18:51;;;;;;;7.90;6.70;;;;;;;19.71;55.56;100564.19;109888;1271;22376;-80
2023/06/15 09:21:34;;;;;;;7.60;6.20;;;;;;;19.86;54.82;100564.48;109496;1271;23657;-80
2023/06/15 09:24:39;;;;;;;8.30;7.50;;;;;;;20.04;54.77;100563.48;109372;1275;23715;-80
2023/06/15 09:27:20;;;;;;;11.20;7.40;;;;;;;20.30;54.17;100564.79;109692;1268;21977;-79
2023/06/15 09:30:14;;;;;;;9.90;7.40;;;;;;;20.52;53.93;100562.42;109920;1266;24316;-82
2023/06/15 09:33:11;;;;;;;7.30;6.50;;;;;;;20.80;53.00;100560.30;110344;1266;21971;-79
2023/06/15 09:35:59;;;;;;;8.80;6.70;;;;;;;20.95;51.88;100557.88;110164;1266;24354;-80
2023/06/15 09:38:53;;;;;;;10.00;5.80;;;;;;;21.12;51.55;100556.38;109783;1268;21925;-79
2023/06/15 09:41:58;;;;;;;7.50;5.20;;;;;;;21.37;51.32;100554.02;109876;1263;23720;-79
2023/06/15 09:44:55;;;;;;;8.30;6.00;;;;;;;21.59;50.31;100548.91;110248;1262;21969;-80
2023/06/15 09:47:47;;;;;;;11.30;6.70;;;;;;;21.83;50.02;100548.74;110588;1263;22006;-79
2023/06/15 09:50:41;;;;;;;9.00;6.40;;;;;;;22.12;49.61;100549.52;110493;1263;21994;-80
2023/06/15 09:53:44;;;;;;;7.90;6.40;;;;;;;22.31;48.72;100544.13;109912;1268;23072;-82
2023/06/15 09:56:35;;;;;;;6.40;5.50;;;;;;;22.47;47.83;100537.30;109816;1262;21980;-79
2023/06/15 09:59:21;;;;;;;7.60;5.40;;;;;;;22.41;47.01;100536.54;110286;1266;22255;-78
2023/06/15 10:02:02;;;;;;;7.20;5.20;;;;;;;22.32;46.87;100538.88;110240;1265;22538;-78
2023/06/15 10:04:42;;;;;;;10.00;5.30;;;;;;;22.26;46.95;100535.49;110233;1263;23625;-78
2023/06/15 10:07:24;;;;;;;8.00;6.20;;;;;;;22.19;47.03;100531.20;110437;1265;21982;-80
2023/06/15 10:10:12;;;;;;;6.90;6.20;;;;;;;22.21;47.16;100534.27;110421;1265;22743;-79
2023/06/15 10:12:52;;;;;;;6.30;5.50;;;;;;;22.27;47.21;100537.21;110026;1266;21973;-80
2023/06/15 10:15:26;;;;;;;10.00;6.20;;;;;;;22.29;46.86;100543.27;109862;1266;22030;-79
2023/06/15 10:18:05;;;;;;;7.40;6.60;;;;;;;22.16;46.29;100538.93;110596;1263;22333;-78
2023/06/15 10:20:41;;;;;;;9.60;6.40;;;;;;;21.97;46.25;100533.29;110680;1261;21985;-79
2023/06/15 10:23:31;;;;;;;8.30;5.90;;;;;;;21.83;46.71;100530.91;110471;1265;21987;-79
2023/06/15 10:26:32;;;;;;;6.90;5.70;;;;;;;21.78;47.32;100527.42;110621;1265;24302;-80
2023/06/15 10:29:25;;;;;;;9.70;5.30;;;;;;;21.83;47.28;100524.30;110065;1265;21980;-81
2023/06/15 10:32:29;;;;;;;8.80;5.80;;;;;;;21.93;47.36;100523.52;109873;1270;22309;-80
2023/06/15 10:35:37;;;;;;;8.60;5.10;;;;;;;22.00;46.82;100524.90;110144;1270;23122;-78
2023/06/15 10:38:34;;;;;;;10.60;5.80;;;;;;;21.96;46.45;100525.54;110065;1267;21971;-79
2023/06/15 10:41:11;;;;;;;8.10;5.30;;;;;;;21.88;46.26;100525.88;110303;1264;22564;-79
2023/06/15 10:44:00;;;;;;;10.30;5.60;;;;;;;21.84;46.44;100528.15;110074;1269;21976;-79
2023/06/15 10:46:45;;;;;;;6.10;5.50;;;;;;;21.79;46.52;100526.38;110026;1263;23618;-79
2023/06/15 10:49:24;;;;;;;7.50;5.60;;;;;;;21.81;46.58;100525.91;110861;1265;22008;-79
2023/06/15 10:51:58;;;;;;;9.00;5.50;;;;;;;21.79;46.18;100524.63;110403;1265;22163;-79
2023/06/15 10:54:29;;;;;;;6.80;5.80;;;;;;;21.79;46.46;100523.39;110554;1265;21989;-79
2023/06/15 10:57:06;;;;;;;5.80;5.30;;;;;;;21.83;46.60;100522.23;110878;1265;22806;-80
2023/06/15 10:59:57;;;;;;;9.20;5.30;;;;;;;21.85;46.35;100524.14;109734;1269;23041;-80
2023/06/15 11:02:31;;;;;;;15.50;9.90;;;;;;;21.77;46.03;100518.24;110549;1262;21979;-79
2023/06/15 11:05:08;;;;;;;15.10;7.80;;;;;;;21.76;46.14;100519.02;111020;1262;23590;-78
2023/06/15 11:07:43;;;;;;;7.10;5.30;;;;;;;21.77;46.12;100520.95;110776;1261;21986;-79
2023/06/15 11:10:27;;;;;;;9.50;4.90;;;;;;;21.77;46.06;100520.88;110792;1262;22043;-85
2023/06/15 11:13:05;;;;;;;8.20;5.60;;;;;;;21.82;45.86;100520.72;110629;1262;23717;-79
2023/06/15 11:15:37;;;;;;;9.30;5.40;;;;;;;21.79;45.77;100519.14;110927;1262;22013;-79
2023/06/15 11:18:17;;;;;;;6.60;5.30;;;;;;;21.81;46.31;100519.56;110563;1262;21928;-79
2023/06/15 11:20:56;;;;;;;5.50;5.00;;;;;;;21.91;46.39;100521.90;110847;1262;21984;-80
2023/06/15 11:23:46;;;;;;;5.80;4.70;;;;;;;21.92;45.82;100518.98;110652;1267;21980;-80
2023/06/15 11:26:20;;;;;;;6.10;5.40;;;;;;;21.92;45.78;100521.08;110586;1266;21972;-81
2023/06/15 11:28:59;;;;;;;8.90;5.90;;;;;;;21.95;45.68;100518.00;110479;1266;22060;-79
2023/06/15 11:31:32;;;;;;;8.40;5.60;;;;;;;22.01;45.87;100514.00;110255;1254;21970;-81
2023/06/15 11:34:18;;;;;;;8.00;5.70;;;;;;;22.11;45.79;100512.11;110515;1267;22376;-80
2023/06/15 11:37:05;;;;;;;6.60;5.60;;;;;;;22.23;45.92;100511.27;110441;1263;22000;-79
2023/06/15 11:39:47;;;;;;;9.90;6.30;;;;;;;22.34;45.46;100509.48;110742;1263;21968;-79
2023/06/15 11:42:25;;;;;;;11.40;6.30;;;;;;;22.28;44.90;100505.53;110970;1259;23075;-80
2023/06/15 11:45:24;;;;;;;8.60;6.20;;;;;;;22.16;44.96;100510.08;110998;1262;23600;-81
2023/06/15 11:48:17;;;;;;;10.40;5.60;;;;;;;22.03;45.19;100504.45;111078;1261;21986;-78
2023/06/15 11:50:50;;;;;;;8.00;5.60;;;;;;;22.09;45.73;100505.69;111014;1258;21963;-80